KACT/ACT METAR and TAF weather

Enter ICAO airport designator
Station Type Date Time Source
KACT METAR 2019/08/25 13:51 UTC NOAA

KACT 251351Z 00000KT 10SM CLR 27/23 A2989 RMK AO2 SLP114 T02670233 $


Station Type Date Time Source
KACT Decoded METAR 2019/08/25 13:51 UTC NOAA

Station name not available
Aug 25, 2019 - 09:51 AM EDT / 2019.08.25 1351 UTC
Wind: Calm:0
Visibility: 10 mile(s):0
Sky conditions: clear
Temperature: 80.1 F (26.7 C)
Dew Point: 73.9 F (23.3 C)
Relative Humidity: 81%
Pressure (altimeter): 29.89 in. Hg (1012 hPa)
ob: KACT 251351Z 00000KT 10SM CLR 27/23 A2989 RMK AO2 SLP114 T02670233
cycle: 14

Station Type Date Time Source
KACT TAF 2019/08/25 12:33 UTC NOAA

TAF KACT 251130Z 2512/2612 14006KT P6SM SCT250

Example: see airport list